Time;durP1;ratioP1;P1;durP2;ratioP2;P2;SDS_P1;SDS_P2;PMS_P1;PMS_P2;Temp;Humidity;BMP_temperature;BMP_pressure;BME280_temperature;BME280_humidity;BME280_pressure;Samples;Min_cycle;Max_cycle;Signal;HPM_P1;HPM_P2
2021/12/01 00:00:23;;;;;;;1.58;1.00;;;1.80;43.80;;;;;;5037969;28;20108;-74
2021/12/01 00:02:53;;;;;;;3.15;1.48;;;1.90;53.00;;;;;;5037134;28;20043;-74
2021/12/01 00:05:20;;;;;;;3.10;1.50;;;1.70;65.80;;;;;;5037533;28;20048;-74
2021/12/01 00:07:47;;;;;;;2.75;2.03;;;1.70;68.80;;;;;;5037693;28;20041;-74
2021/12/01 00:10:13;;;;;;;2.00;1.50;;;1.60;80.60;;;;;;5037206;28;20037;-74
2021/12/01 00:12:39;;;;;;;1.70;1.20;;;1.80;91.20;;;;;;5037401;28;20044;-74
2021/12/01 00:15:06;;;;;;;3.72;1.90;;;1.70;90.40;;;;;;5037393;28;20037;-74
2021/12/01 00:17:32;;;;;;;12.93;7.97;;;1.70;99.90;;;;;;5037110;28;20041;-74
2021/12/01 00:20:01;;;;;;;7.47;2.67;;;1.60;99.90;;;;;;5037334;28;20544;-74
2021/12/01 00:22:27;;;;;;;2.88;1.35;;;1.80;98.80;;;;;;5037205;28;20045;-74
2021/12/01 00:24:54;;;;;;;1.50;1.40;;;1.80;98.90;;;;;;5037331;28;20053;-74
2021/12/01 00:27:20;;;;;;;5.28;2.15;;;1.80;99.90;;;;;;5037447;28;20107;-74
2021/12/01 00:29:48;;;;;;;4.80;2.45;;;1.70;99.90;;;;;;5037421;28;20096;-74
2021/12/01 00:32:14;;;;;;;5.65;2.15;;;1.70;99.90;;;;;;5036812;28;20037;-74
2021/12/01 00:34:40;;;;;;;2.95;2.10;;;1.70;99.90;;;;;;5037321;28;20049;-74
2021/12/01 00:37:06;;;;;;;4.50;2.28;;;1.70;99.90;;;;;;5036999;28;20145;-74
2021/12/01 00:39:31;;;;;;;5.97;3.88;;;1.90;99.90;;;;;;5037377;28;20485;-74
2021/12/01 00:41:59;;;;;;;4.57;1.50;;;1.90;99.90;;;;;;5037087;28;20037;-74
2021/12/01 00:44:24;;;;;;;4.22;1.38;;;2.00;99.90;;;;;;5037033;28;20037;-74
2021/12/01 00:47:05;;;;;;;7.78;2.50;;;2.10;99.90;;;;;;5035641;28;20029;-74
2021/12/01 00:49:35;;;;;;;3.35;1.27;;;2.00;99.90;;;;;;5037156;28;20041;-74
2021/12/01 00:52:01;;;;;;;2.28;1.40;;;2.20;99.90;;;;;;5035767;28;20044;-74
2021/12/01 00:54:27;;;;;;;4.20;1.95;;;2.20;99.90;;;;;;5036580;28;20037;-74
2021/12/01 00:56:53;;;;;;;5.32;1.27;;;2.10;99.90;;;;;;5036728;28;20068;-74
2021/12/01 00:59:19;;;;;;;3.30;1.08;;;2.40;99.90;;;;;;5036845;28;20045;-74
2021/12/01 01:01:46;;;;;;;6.10;2.03;;;2.70;99.90;;;;;;5036384;28;20065;-74
2021/12/01 01:04:13;;;;;;;4.10;1.80;;;2.40;99.90;;;;;;5036599;28;20052;-74
2021/12/01 01:06:39;;;;;;;4.03;1.40;;;2.40;99.90;;;;;;5036461;28;20037;-74
2021/12/01 01:09:07;;;;;;;4.05;1.52;;;2.40;99.90;;;;;;5036580;28;20061;-74
2021/12/01 01:20:13;;;;;;;2.53;1.35;;;2.50;99.90;;;;;;4992006;28;20033;-74
2021/12/01 01:22:40;;;;;;;4.43;1.27;;;2.60;99.90;;;;;;5036394;28;20041;-74
2021/12/01 01:25:08;;;;;;;3.85;1.33;;;2.90;99.90;;;;;;5035935;28;20053;-74
2021/12/01 01:27:34;;;;;;;4.07;1.27;;;3.10;99.90;;;;;;5036268;28;20029;-74
2021/12/01 01:30:00;;;;;;;3.00;1.48;;;3.10;99.90;;;;;;5036029;28;20033;-74
2021/12/01 01:32:26;;;;;;;4.13;1.52;;;3.00;99.90;;;;;;5035674;28;20099;-74
2021/12/01 01:34:52;;;;;;;5.93;1.65;;;3.10;99.90;;;;;;5035851;28;20443;-73
2021/12/01 01:37:18;;;;;;;3.17;1.05;;;3.30;99.90;;;;;;5036040;28;20086;-73
2021/12/01 01:39:46;;;;;;;5.03;1.30;;;3.20;99.90;;;;;;5035455;28;20042;-73
2021/12/01 01:42:12;;;;;;;5.88;1.50;;;3.30;99.90;;;;;;5035713;28;20041;-74
2021/12/01 01:44:38;;;;;;;7.45;1.63;;;3.30;99.90;;;;;;5035610;28;20507;-73
2021/12/01 01:47:04;;;;;;;5.70;1.83;;;3.50;99.90;;;;;;5035447;28;20033;-73
2021/12/01 01:52:11;;;;;;;4.72;1.70;;;3.40;99.90;;;;;;5035493;28;20528;-73
2021/12/01 01:54:36;;;;;;;3.45;1.40;;;3.30;99.90;;;;;;5035505;28;20045;-74
2021/12/01 01:57:03;;;;;;;3.45;1.20;;;3.40;99.90;;;;;;5035588;28;20044;-73
2021/12/01 01:59:28;;;;;;;2.35;1.20;;;3.50;99.90;;;;;;5035337;28;20129;-73
2021/12/01 02:01:56;;;;;;;2.60;0.90;;;3.50;99.90;;;;;;5034908;28;20124;-73
2021/12/01 02:04:25;;;;;;;4.47;2.10;;;3.50;99.90;;;;;;5035257;28;20550;-73
2021/12/01 02:06:51;;;;;;;5.10;1.42;;;3.40;99.90;;;;;;5035282;28;20116;-73
2021/12/01 02:09:20;;;;;;;3.50;1.40;;;3.30;99.90;;;;;;5035395;28;20045;-73
2021/12/01 02:11:47;;;;;;;3.95;2.72;;;3.20;99.90;;;;;;5035085;28;20120;-73
2021/12/01 02:14:13;;;;;;;4.00;1.50;;;3.20;99.90;;;;;;5035347;28;20124;-73
2021/12/01 02:16:39;;;;;;;5.07;1.30;;;3.20;99.90;;;;;;5034844;28;20037;-73
2021/12/01 02:19:05;;;;;;;2.63;1.50;;;3.20;99.90;;;;;;5034940;28;20045;-74
2021/12/01 02:21:31;;;;;;;1.98;1.20;;;3.30;99.90;;;;;;5034962;28;20106;-73
2021/12/01 02:24:04;;;;;;;5.05;1.67;;;3.20;99.90;;;;;;5034640;28;20501;-73
2021/12/01 02:26:33;;;;;;;2.75;1.42;;;3.30;99.90;;;;;;5035244;28;20065;-74
2021/12/01 02:29:01;;;;;;;2.50;0.80;;;3.20;99.90;;;;;;5034605;28;20045;-74
2021/12/01 02:31:34;;;;;;;3.42;1.20;;;3.50;99.90;;;;;;5034786;28;20449;-74
2021/12/01 02:34:01;;;;;;;3.08;1.23;;;3.60;99.90;;;;;;5035183;28;20116;-74
2021/12/01 02:36:27;;;;;;;4.10;1.60;;;3.90;99.90;;;;;;5035064;28;20055;-74
2021/12/01 02:38:53;;;;;;;4.70;1.50;;;4.00;99.90;;;;;;5034458;28;20068;-74
2021/12/01 02:41:30;;;;;;;1.95;1.08;;;4.10;99.90;;;;;;5035593;28;20041;-73
2021/12/01 02:43:57;;;;;;;3.05;1.33;;;4.30;99.90;;;;;;5035028;28;20037;-74
2021/12/01 02:46:24;;;;;;;5.28;1.50;;;4.50;99.90;;;;;;5034631;28;20484;-73
2021/12/01 02:48:50;;;;;;;2.75;1.08;;;4.50;99.90;;;;;;5034901;28;20037;-74
2021/12/01 02:51:18;;;;;;;2.72;1.20;;;4.40;99.90;;;;;;5034213;28;20048;-74
2021/12/01 02:53:44;;;;;;;2.92;1.02;;;4.40;99.90;;;;;;5034357;28;20418;-74
2021/12/01 02:56:10;;;;;;;2.20;1.17;;;4.40;99.90;;;;;;5034876;28;20034;-74
2021/12/01 02:58:41;;;;;;;3.50;1.00;;;4.40;99.90;;;;;;5035303;28;20045;-74
2021/12/01 03:01:10;;;;;;;2.20;1.27;;;4.50;99.90;;;;;;5035161;28;20048;-74
2021/12/01 03:03:39;;;;;;;4.15;1.60;;;4.50;99.90;;;;;;5034618;28;20045;-73
2021/12/01 03:06:06;;;;;;;2.97;1.20;;;4.40;99.90;;;;;;5034745;28;20033;-74
2021/12/01 03:08:34;;;;;;;3.38;1.25;;;4.30;99.90;;;;;;5034881;28;20524;-73
2021/12/01 03:11:01;;;;;;;2.17;1.30;;;4.30;99.90;;;;;;5034622;28;20103;-73
2021/12/01 03:13:27;;;;;;;3.80;1.20;;;4.40;99.90;;;;;;5034889;28;20045;-74
2021/12/01 03:15:54;;;;;;;1.63;1.42;;;4.30;99.90;;;;;;5034386;28;20037;-74
2021/12/01 03:18:20;;;;;;;7.40;1.42;;;4.30;99.90;;;;;;5034631;28;20055;-74
2021/12/01 03:20:47;;;;;;;3.35;1.30;;;4.40;99.90;;;;;;5034289;28;20496;-74
2021/12/01 03:23:14;;;;;;;3.88;0.98;;;4.50;99.90;;;;;;5034574;28;20034;-73
2021/12/01 03:25:40;;;;;;;2.45;1.10;;;4.60;99.90;;;;;;5034153;28;20049;-73
2021/12/01 03:28:08;;;;;;;2.63;1.05;;;4.70;99.90;;;;;;5034469;28;20029;-74
2021/12/01 03:30:36;;;;;;;3.60;1.20;;;5.00;99.90;;;;;;5034018;28;20052;-74
2021/12/01 03:33:04;;;;;;;2.30;1.00;;;5.20;99.90;;;;;;5033650;28;20558;-73
2021/12/01 03:35:30;;;;;;;3.05;1.20;;;5.40;99.90;;;;;;5033898;28;20049;-73
2021/12/01 03:37:56;;;;;;;4.78;1.10;;;5.50;99.90;;;;;;5034427;28;20038;-74
2021/12/01 03:40:22;;;;;;;2.50;1.00;;;5.50;99.90;;;;;;5033724;28;20583;-73
2021/12/01 03:42:48;;;;;;;3.40;0.95;;;5.50;99.90;;;;;;5034429;28;20492;-73
2021/12/01 03:45:14;;;;;;;2.20;1.50;;;5.30;99.90;;;;;;5033767;28;20048;-73
2021/12/01 03:47:41;;;;;;;1.98;0.93;;;5.40;99.90;;;;;;5033936;28;20037;-73
2021/12/01 03:50:08;;;;;;;1.23;0.73;;;5.50;99.90;;;;;;5033832;28;20045;-73
2021/12/01 03:52:35;;;;;;;2.83;1.00;;;5.70;99.90;;;;;;5033950;28;20046;-73
2021/12/01 03:55:01;;;;;;;2.10;0.90;;;5.80;99.90;;;;;;5033775;28;20563;-73
2021/12/01 03:57:27;;;;;;;2.08;1.00;;;5.90;99.90;;;;;;5033995;28;20034;-73
2021/12/01 03:59:53;;;;;;;1.10;1.00;;;5.80;99.90;;;;;;5033994;28;20052;-74
2021/12/01 04:02:19;;;;;;;2.03;1.05;;;5.80;99.90;;;;;;5033902;28;20523;-74
2021/12/01 04:04:45;;;;;;;2.53;0.90;;;5.90;99.90;;;;;;5037338;28;20038;-74
2021/12/01 04:07:11;;;;;;;1.35;0.90;;;6.00;99.90;;;;;;5037849;28;20104;-74
2021/12/01 04:09:40;;;;;;;2.53;1.00;;;5.90;99.90;;;;;;5037378;28;20041;-74
2021/12/01 04:12:06;;;;;;;4.22;1.10;;;6.00;99.90;;;;;;5037363;28;20038;-74
2021/12/01 04:14:32;;;;;;;4.15;0.95;;;6.00;99.90;;;;;;5037312;28;20077;-74
2021/12/01 04:16:58;;;;;;;3.22;1.30;;;6.00;99.90;;;;;;5037222;28;20113;-74
2021/12/01 04:19:23;;;;;;;4.15;1.10;;;5.80;99.90;;;;;;5037126;28;20052;-74
2021/12/01 04:21:49;;;;;;;4.75;1.23;;;5.70;99.90;;;;;;5037282;28;20049;-74
2021/12/01 04:24:15;;;;;;;6.43;1.40;;;5.60;99.90;;;;;;5037226;28;20076;-74
2021/12/01 04:26:41;;;;;;;2.10;1.13;;;5.70;99.90;;;;;;5037484;28;20414;-74
2021/12/01 04:29:07;;;;;;;2.17;1.10;;;5.70;99.90;;;;;;5037614;28;20048;-74
2021/12/01 04:31:36;;;;;;;2.03;1.02;;;5.90;99.90;;;;;;5037308;28;20469;-74
2021/12/01 04:34:03;;;;;;;1.70;1.20;;;5.90;99.90;;;;;;5037179;28;20091;-74
2021/12/01 04:36:32;;;;;;;1.67;1.00;;;6.00;99.90;;;;;;5037382;28;20096;-74
2021/12/01 04:38:58;;;;;;;1.35;1.00;;;6.00;99.90;;;;;;5037473;28;20136;-74
2021/12/01 04:41:25;;;;;;;2.03;0.95;;;6.10;99.90;;;;;;5036891;28;20530;-74
2021/12/01 04:43:53;;;;;;;1.77;0.80;;;6.20;99.90;;;;;;5036897;28;20190;-74
2021/12/01 04:46:20;;;;;;;1.58;1.13;;;6.10;99.90;;;;;;5037082;28;20565;-74
2021/12/01 04:48:47;;;;;;;1.50;0.90;;;6.10;99.90;;;;;;5036606;28;20128;-74
2021/12/01 04:51:13;;;;;;;2.17;0.85;;;6.20;99.90;;;;;;5037309;28;20040;-74
2021/12/01 04:53:39;;;;;;;1.60;1.05;;;6.10;99.90;;;;;;5036991;28;20045;-74
2021/12/01 04:56:06;;;;;;;1.08;0.80;;;6.20;99.90;;;;;;5037238;28;20029;-74
2021/12/01 04:58:33;;;;;;;1.20;1.10;;;6.30;99.90;;;;;;5036037;28;20458;-74
2021/12/01 05:01:00;;;;;;;2.58;1.10;;;6.20;99.90;;;;;;5036867;28;20048;-74
2021/12/01 05:03:26;;;;;;;2.20;1.10;;;6.30;99.90;;;;;;5036046;28;20041;-74
2021/12/01 05:05:52;;;;;;;1.35;1.00;;;6.30;99.90;;;;;;5035889;28;20040;-73
2021/12/01 05:08:20;;;;;;;1.90;0.90;;;6.10;99.90;;;;;;5035689;28;20132;-74
2021/12/01 05:10:46;;;;;;;3.35;1.30;;;6.20;99.90;;;;;;5034989;28;20076;-73
2021/12/01 05:13:12;;;;;;;3.40;1.13;;;6.10;99.90;;;;;;5035103;28;20516;-73
2021/12/01 05:15:38;;;;;;;1.73;1.08;;;6.00;99.90;;;;;;5035427;28;20034;-74
2021/12/01 05:18:04;;;;;;;2.40;0.88;;;6.10;99.90;;;;;;5035779;28;20045;-74
2021/12/01 05:20:30;;;;;;;1.65;1.00;;;6.20;99.90;;;;;;5026671;28;20042;-74
2021/12/01 05:22:56;;;;;;;0.80;0.80;;;6.20;99.90;;;;;;5026337;28;20033;-73
2021/12/01 05:25:22;;;;;;;2.38;1.00;;;6.20;99.90;;;;;;5036721;28;20057;-72
2021/12/01 05:27:48;;;;;;;1.45;0.75;;;6.20;99.90;;;;;;5036358;28;20029;-73
2021/12/01 05:30:14;;;;;;;1.02;0.80;;;6.20;99.90;;;;;;5036348;28;20428;-73
2021/12/01 05:32:40;;;;;;;2.22;0.90;;;6.10;99.90;;;;;;5035745;28;20044;-73
2021/12/01 05:35:06;;;;;;;2.42;0.90;;;6.00;99.90;;;;;;5023011;28;20038;-76
2021/12/01 05:37:32;;;;;;;1.92;0.80;;;5.90;99.90;;;;;;5029610;28;20542;-72
2021/12/01 05:39:58;;;;;;;2.15;0.90;;;5.70;99.90;;;;;;5014616;28;20038;-72
2021/12/01 05:42:23;;;;;;;3.97;0.90;;;5.90;99.90;;;;;;5015749;28;20046;-73
2021/12/01 05:44:49;;;;;;;1.48;0.80;;;5.70;99.90;;;;;;5015608;28;20046;-73
2021/12/01 05:47:15;;;;;;;2.22;1.10;;;5.60;99.90;;;;;;5015608;28;20038;-72
2021/12/01 05:49:44;;;;;;;1.00;0.70;;;5.70;99.90;;;;;;5015610;28;20080;-73
2021/12/01 05:52:15;;;;;;;2.00;0.80;;;5.70;99.90;;;;;;5018631;28;20037;-72
2021/12/01 05:54:43;;;;;;;1.23;0.93;;;5.70;99.90;;;;;;5036088;28;20046;-72
2021/12/01 05:57:09;;;;;;;2.08;0.88;;;5.70;99.90;;;;;;5035076;28;20265;-72
2021/12/01 05:59:35;;;;;;;1.60;0.80;;;5.80;99.90;;;;;;5035846;28;20044;-72
2021/12/01 06:02:01;;;;;;;2.97;1.00;;;5.70;99.90;;;;;;5036095;28;20376;-72
2021/12/01 06:04:28;;;;;;;2.70;1.08;;;5.70;99.90;;;;;;5035543;28;20033;-72
2021/12/01 06:06:54;;;;;;;2.35;1.33;;;5.60;99.90;;;;;;5035791;28;20385;-72
2021/12/01 06:09:20;;;;;;;3.03;0.88;;;5.70;99.90;;;;;;5035448;28;20095;-72
2021/12/01 06:11:47;;;;;;;1.55;0.85;;;5.80;99.90;;;;;;5035329;28;20041;-72
2021/12/01 06:14:14;;;;;;;2.53;0.98;;;5.90;99.90;;;;;;5035361;28;20033;-73
2021/12/01 06:16:42;;;;;;;2.55;1.13;;;5.80;99.90;;;;;;5034970;28;20041;-72
2021/12/01 06:19:08;;;;;;;2.83;1.20;;;5.80;99.90;;;;;;5035658;28;20037;-73
2021/12/01 06:21:34;;;;;;;2.40;1.02;;;5.70;99.90;;;;;;5035585;28;20056;-73
2021/12/01 06:24:00;;;;;;;1.23;0.80;;;5.70;99.90;;;;;;5034789;28;20045;-73
2021/12/01 06:26:26;;;;;;;1.58;0.90;;;5.80;99.90;;;;;;5034940;28;20033;-74
2021/12/01 06:28:52;;;;;;;0.93;0.70;;;5.70;99.90;;;;;;5028413;28;20037;-74
2021/12/01 06:31:19;;;;;;;1.40;0.80;;;5.70;99.90;;;;;;5033199;28;20410;-73
2021/12/01 06:33:45;;;;;;;2.42;0.80;;;5.60;99.90;;;;;;5033193;28;20499;-73
2021/12/01 06:36:11;;;;;;;1.15;0.88;;;5.50;99.90;;;;;;5032215;28;20076;-74
2021/12/01 06:38:39;;;;;;;3.50;1.10;;;5.50;99.90;;;;;;5033716;28;20065;-74
2021/12/01 06:41:05;;;;;;;1.23;0.93;;;5.30;99.90;;;;;;5033254;28;20123;-74
2021/12/01 06:43:30;;;;;;;1.67;0.80;;;5.50;99.90;;;;;;5033853;28;20495;-74
2021/12/01 06:45:57;;;;;;;1.52;0.80;;;5.50;99.90;;;;;;5033688;28;20087;-73
2021/12/01 06:48:22;;;;;;;1.60;1.10;;;5.50;99.90;;;;;;5032609;28;20045;-74
2021/12/01 06:50:48;;;;;;;1.05;1.00;;;5.60;99.90;;;;;;5033114;28;20504;-73
2021/12/01 06:53:14;;;;;;;1.83;0.93;;;5.50;99.90;;;;;;5031246;28;20055;-73
2021/12/01 06:55:40;;;;;;;2.95;1.00;;;5.60;99.90;;;;;;5033462;28;20042;-73
2021/12/01 06:58:06;;;;;;;1.00;0.68;;;5.70;99.90;;;;;;5033680;28;20496;-74
2021/12/01 07:00:33;;;;;;;2.85;1.23;;;5.70;99.90;;;;;;5033340;28;20041;-73
2021/12/01 07:02:59;;;;;;;1.30;1.02;;;5.80;99.90;;;;;;5032125;28;20037;-73
2021/12/01 07:05:25;;;;;;;2.97;1.10;;;5.80;99.90;;;;;;5033032;28;20033;-74
2021/12/01 07:07:51;;;;;;;2.08;1.10;;;5.70;99.90;;;;;;5031776;28;20182;-74
2021/12/01 07:10:17;;;;;;;6.68;0.80;;;6.00;99.90;;;;;;5032852;28;20041;-74
2021/12/01 07:12:44;;;;;;;3.08;1.10;;;6.00;99.90;;;;;;5031819;28;20052;-73
2021/12/01 07:15:12;;;;;;;3.85;1.02;;;6.00;99.90;;;;;;5032377;28;20512;-73
2021/12/01 07:17:38;;;;;;;1.40;1.20;;;6.10;99.90;;;;;;5032129;28;20033;-74
2021/12/01 07:20:06;;;;;;;4.28;1.50;;;6.10;99.90;;;;;;5032776;28;20037;-73
2021/12/01 07:22:32;;;;;;;1.10;0.90;;;6.20;99.90;;;;;;5032875;28;20072;-73
2021/12/01 07:24:58;;;;;;;2.63;1.20;;;6.10;99.90;;;;;;5033474;28;20073;-73
2021/12/01 07:27:24;;;;;;;2.78;1.30;;;6.20;99.90;;;;;;5033625;28;20038;-74
2021/12/01 07:29:50;;;;;;;3.15;1.30;;;6.30;99.90;;;;;;5033315;28;20112;-73
2021/12/01 07:32:16;;;;;;;3.42;1.52;;;6.40;99.90;;;;;;5031761;28;20096;-73
2021/12/01 07:34:42;;;;;;;7.57;2.20;;;6.40;99.90;;;;;;5033028;28;20060;-73
2021/12/01 07:37:09;;;;;;;5.05;2.05;;;6.40;99.90;;;;;;5032767;28;20030;-73
2021/12/01 07:39:35;;;;;;;5.13;2.10;;;6.50;99.90;;;;;;5035646;28;20087;-73
2021/12/01 07:42:02;;;;;;;3.00;2.22;;;6.50;99.90;;;;;;5036132;28;20041;-73
2021/12/01 07:44:27;;;;;;;3.97;2.17;;;6.70;99.90;;;;;;5036877;28;20124;-73
2021/12/01 07:46:53;;;;;;;1.30;1.10;;;6.80;99.90;;;;;;5036805;28;20120;-73
2021/12/01 07:49:19;;;;;;;1.88;1.20;;;6.80;99.90;;;;;;5037089;28;20566;-73
2021/12/01 07:51:45;;;;;;;2.10;0.93;;;6.90;99.90;;;;;;5036892;28;20041;-73
2021/12/01 07:54:11;;;;;;;2.95;1.40;;;7.00;99.90;;;;;;5035825;28;20056;-73
2021/12/01 07:56:37;;;;;;;1.95;1.30;;;7.10;99.90;;;;;;5036396;28;20042;-73
2021/12/01 07:59:03;;;;;;;2.42;1.17;;;7.10;99.90;;;;;;5037147;28;20041;-73
2021/12/01 08:01:29;;;;;;;4.18;2.35;;;7.10;99.90;;;;;;5036462;28;20041;-73
2021/12/01 08:03:55;;;;;;;2.97;1.30;;;7.20;99.90;;;;;;5036380;28;20384;-73
2021/12/01 08:06:21;;;;;;;2.03;1.00;;;7.20;99.90;;;;;;5036851;28;20447;-74
2021/12/01 08:08:47;;;;;;;4.30;1.10;;;7.00;99.90;;;;;;5036608;28;20033;-73
2021/12/01 08:11:13;;;;;;;1.15;0.90;;;7.00;99.90;;;;;;5035389;28;20053;-74
2021/12/01 08:13:39;;;;;;;2.20;1.10;;;7.00;99.90;;;;;;5019559;28;20046;-75
2021/12/01 08:16:06;;;;;;;4.68;3.05;;;6.90;99.90;;;;;;5015007;28;20104;-73
2021/12/01 08:18:33;;;;;;;8.40;3.70;;;6.90;99.90;;;;;;5015377;28;20080;-73
2021/12/01 08:20:59;;;;;;;10.32;5.68;;;6.90;99.90;;;;;;5016004;28;20096;-73
2021/12/01 08:23:24;;;;;;;31.35;23.02;;;6.90;99.90;;;;;;5028755;28;20053;-75
2021/12/01 08:25:50;;;;;;;5.75;3.75;;;7.00;99.90;;;;;;5036470;28;20060;-75
2021/12/01 08:28:16;;;;;;;7.57;5.60;;;7.10;99.90;;;;;;5036244;28;20041;-77
2021/12/01 08:30:42;;;;;;;40.13;33.10;;;7.00;99.90;;;;;;5035829;28;20095;-74
2021/12/01 08:33:08;;;;;;;90.15;71.72;;;7.10;99.90;;;;;;5035404;28;20045;-74
2021/12/01 08:35:34;;;;;;;6.43;5.30;;;7.20;99.90;;;;;;5035496;28;20041;-74
2021/12/01 08:38:00;;;;;;;43.10;34.95;;;7.20;99.90;;;;;;5035638;28;20038;-73
2021/12/01 08:40:26;;;;;;;17.73;15.85;;;7.20;99.90;;;;;;5035144;28;20048;-73
2021/12/01 08:42:52;;;;;;;7.57;5.65;;;7.40;99.90;;;;;;5034789;28;20046;-73
2021/12/01 08:45:18;;;;;;;4.53;3.35;;;7.50;99.90;;;;;;5035085;28;20536;-73
2021/12/01 08:47:44;;;;;;;4.53;2.42;;;7.60;99.90;;;;;;5035712;28;20044;-73
2021/12/01 08:50:12;;;;;;;13.35;9.55;;;7.60;99.90;;;;;;5034299;28;20493;-73
2021/12/01 08:52:39;;;;;;;9.32;6.55;;;7.70;99.90;;;;;;5035307;28;20077;-73
2021/12/01 08:55:05;;;;;;;7.22;3.85;;;7.70;99.90;;;;;;5035339;28;20520;-73
2021/12/01 08:57:31;;;;;;;7.97;4.50;;;7.90;99.90;;;;;;5035670;28;20114;-73
2021/12/01 08:59:57;;;;;;;13.60;12.20;;;8.10;99.90;;;;;;5035334;28;20493;-73
2021/12/01 09:02:23;;;;;;;19.15;17.25;;;8.20;99.90;;;;;;5035142;28;20095;-73
2021/12/01 09:04:52;;;;;;;11.50;9.30;;;8.30;99.90;;;;;;5034961;28;20045;-73
2021/12/01 09:07:19;;;;;;;6.60;5.82;;;8.20;99.90;;;;;;5035309;28;20037;-73
2021/12/01 09:09:46;;;;;;;29.55;26.55;;;8.00;99.90;;;;;;5034730;28;20045;-73
2021/12/01 09:12:14;;;;;;;9.98;7.00;;;8.10;99.90;;;;;;5035064;28;20153;-73
2021/12/01 09:14:40;;;;;;;9.77;8.68;;;8.20;99.90;;;;;;5034952;28;20144;-73
2021/12/01 09:17:06;;;;;;;6.05;5.50;;;8.10;99.90;;;;;;5033882;28;20041;-73
2021/12/01 09:19:33;;;;;;;5.75;4.82;;;8.10;99.90;;;;;;5025966;28;20140;-73
2021/12/01 09:21:59;;;;;;;6.05;5.53;;;8.20;99.90;;;;;;5035134;28;20108;-73
2021/12/01 09:24:24;;;;;;;13.23;11.60;;;8.30;99.90;;;;;;5034849;28;20091;-73
2021/12/01 09:26:50;;;;;;;6.43;5.22;;;8.30;99.90;;;;;;5034089;28;20045;-73
2021/12/01 09:29:17;;;;;;;4.18;3.00;;;8.40;99.90;;;;;;5034515;28;20539;-73
2021/12/01 09:31:42;;;;;;;53.40;37.15;;;8.40;99.90;;;;;;5034612;28;20140;-73
2021/12/01 09:34:08;;;;;;;8.85;7.03;;;8.50;99.90;;;;;;5034767;28;20136;-73
2021/12/01 09:36:34;;;;;;;9.10;6.07;;;8.50;99.90;;;;;;5034483;28;20124;-73
2021/12/01 09:39:01;;;;;;;6.07;4.88;;;8.50;99.90;;;;;;5034604;28;20072;-73
2021/12/01 09:41:29;;;;;;;28.10;20.10;;;8.60;99.90;;;;;;5034844;28;20052;-73
2021/12/01 09:43:54;;;;;;;5.93;4.72;;;8.60;99.90;;;;;;5034727;28;20567;-74
2021/12/01 09:46:21;;;;;;;60.67;43.35;;;8.60;99.90;;;;;;5034309;28;20041;-73
2021/12/01 09:48:46;;;;;;;7.88;5.30;;;8.70;99.90;;;;;;5049919;28;20480;-73
2021/12/01 09:51:15;;;;;;;16.33;11.93;;;8.90;99.90;;;;;;5034573;28;20187;-75
2021/12/01 09:53:41;;;;;;;60.85;40.95;;;8.90;99.90;;;;;;5034569;28;20049;-72
2021/12/01 09:56:07;;;;;;;7.22;6.45;;;9.10;99.90;;;;;;5034536;28;20029;-72
2021/12/01 09:58:33;;;;;;;5.75;2.65;;;9.20;99.90;;;;;;5033623;28;20045;-72
2021/12/01 10:01:03;;;;;;;25.92;20.77;;;9.20;99.90;;;;;;5033890;28;20045;-73
2021/12/01 10:03:29;;;;;;;2.92;2.67;;;9.30;99.90;;;;;;5034728;28;20378;-73
2021/12/01 10:06:03;;;;;;;5.18;3.67;;;9.40;99.90;;;;;;5034157;28;20095;-73
2021/12/01 10:08:41;;;;;;;4.28;3.05;;;9.40;99.90;;;;;;5033788;28;20041;-76
2021/12/01 10:11:13;;;;;;;4.45;3.05;;;9.60;99.90;;;;;;5034324;28;20063;-73
2021/12/01 10:13:45;;;;;;;2.55;1.98;;;9.70;99.90;;;;;;5034337;28;20053;-73
2021/12/01 10:16:15;;;;;;;25.60;15.77;;;9.70;99.90;;;;;;5034012;28;20037;-73
2021/12/01 10:18:46;;;;;;;10.85;7.22;;;9.80;99.90;;;;;;5033784;28;20041;-73
2021/12/01 10:21:18;;;;;;;163.80;97.88;;;9.70;99.90;;;;;;5034369;28;20492;-73
2021/12/01 10:23:51;;;;;;;10.52;7.43;;;10.00;99.90;;;;;;5033683;28;20041;-73
2021/12/01 10:26:41;;;;;;;17.58;12.35;;;10.10;99.90;;;;;;5034042;28;20044;-72
2021/12/01 10:29:17;;;;;;;22.38;14.65;;;10.20;99.90;;;;;;5033881;28;20484;-73
2021/12/01 10:31:53;;;;;;;1.70;1.33;;;10.20;99.90;;;;;;5033392;28;20045;-73
2021/12/01 10:34:33;;;;;;;17.38;12.65;;;10.10;99.90;;;;;;5033456;28;20400;-73
2021/12/01 10:37:23;;;;;;;19.25;13.82;;;10.10;99.90;;;;;;5033639;28;20037;-73
2021/12/01 10:40:07;;;;;;;1.42;1.20;;;9.80;99.90;;;;;;5033404;28;20041;-73
2021/12/01 10:42:34;;;;;;;98.78;69.72;;;9.50;99.90;;;;;;5034187;28;20107;-73
2021/12/01 10:45:05;;;;;;;195.23;136.20;;;9.50;99.90;;;;;;5033230;28;20041;-73
2021/12/01 10:47:49;;;;;;;9.48;7.75;;;9.40;99.90;;;;;;5033310;28;20530;-73
2021/12/01 10:50:22;;;;;;;4.80;3.83;;;9.50;99.90;;;;;;5033028;28;20049;-73
2021/12/01 10:53:01;;;;;;;4.00;3.47;;;9.60;99.90;;;;;;5046814;28;20492;-73
2021/12/01 10:55:27;;;;;;;2.25;1.08;;;9.60;99.90;;;;;;5029857;28;20112;-74
2021/12/01 10:57:58;;;;;;;1.45;1.35;;;9.60;99.90;;;;;;5032226;28;20495;-74
2021/12/01 11:00:39;;;;;;;3.67;3.33;;;9.60;99.90;;;;;;5031606;28;20124;-73
2021/12/01 11:03:07;;;;;;;2.72;1.95;;;9.60;99.90;;;;;;5032073;28;20034;-73
2021/12/01 11:05:38;;;;;;;1.13;1.02;;;9.60;99.90;;;;;;5032358;28;20045;-73
2021/12/01 11:08:24;;;;;;;1.58;1.17;;;9.70;99.90;;;;;;5032104;28;20044;-73
2021/12/01 11:11:14;;;;;;;0.77;0.77;;;9.90;99.90;;;;;;5031879;28;20048;-74
2021/12/01 11:13:46;;;;;;;3.80;2.88;;;10.10;99.90;;;;;;5033958;28;20049;-74
2021/12/01 11:16:15;;;;;;;1.67;1.10;;;10.50;99.90;;;;;;5036221;28;20049;-74
2021/12/01 11:18:44;;;;;;;11.00;6.35;;;10.80;99.90;;;;;;5036065;28;20042;-74
2021/12/01 11:21:15;;;;;;;3.35;2.60;;;10.90;99.90;;;;;;5024781;28;20509;-74
2021/12/01 11:23:43;;;;;;;1.90;1.23;;;11.30;99.90;;;;;;5031360;28;20156;-75
2021/12/01 11:26:13;;;;;;;1.75;1.27;;;11.40;99.90;;;;;;5036110;28;20044;-77
2021/12/01 11:28:51;;;;;;;7.85;4.45;;;11.20;99.90;;;;;;5036284;28;20060;-76
2021/12/01 11:31:22;;;;;;;1.67;1.52;;;11.10;99.90;;;;;;5035571;28;20488;-76
2021/12/01 11:33:49;;;;;;;;;;;11.20;99.90;;;;;;5036605;28;20068;-76
2021/12/01 11:36:20;;;;;;;1.73;1.30;;;11.10;99.90;;;;;;5034440;28;19912;-77
2021/12/01 11:38:52;;;;;;;42.10;30.70;;;11.00;99.90;;;;;;5034743;28;20068;-76
2021/12/01 11:41:18;;;;;;;11.10;6.60;;;10.80;99.90;;;;;;5034024;28;20045;-77
2021/12/01 11:43:44;;;;;;;2.78;2.00;;;10.70;99.90;;;;;;5031387;28;20041;-76
2021/12/01 11:46:11;;;;;;;1.15;1.02;;;10.50;99.90;;;;;;5033746;28;20052;-78
2021/12/01 11:48:49;;;;;;;3.78;2.15;;;10.90;99.90;;;;;;5020049;28;20041;-77
2021/12/01 11:51:36;;;;;;;2.50;1.52;;;10.90;99.90;;;;;;5015536;28;20498;-76
2021/12/01 11:54:04;;;;;;;3.25;2.95;;;10.90;99.90;;;;;;5033440;28;20038;-76
2021/12/01 11:56:34;;;;;;;2.38;2.08;;;10.80;99.90;;;;;;5035595;28;20076;-76
2021/12/01 11:59:13;;;;;;;1.40;1.30;;;10.70;99.90;;;;;;5051010;28;20479;-77
2021/12/01 12:01:42;;;;;;;2.20;1.50;;;10.70;99.90;;;;;;5034935;28;20553;-76
2021/12/01 12:04:11;;;;;;;1.35;1.17;;;10.90;99.90;;;;;;5035320;28;20072;-76
2021/12/01 12:06:45;;;;;;;2.67;1.48;;;11.00;99.90;;;;;;5035394;28;20565;-76
2021/12/01 12:09:14;;;;;;;12.65;8.75;;;11.20;99.90;;;;;;5035225;28;20484;-77
2021/12/01 12:11:49;;;;;;;10.05;6.65;;;11.30;99.90;;;;;;5035085;28;20053;-77
2021/12/01 12:14:24;;;;;;;1.40;1.30;;;11.30;99.90;;;;;;5035146;28;20504;-76
2021/12/01 12:17:12;;;;;;;2.40;1.33;;;11.10;99.90;;;;;;5035024;28;20533;-77
2021/12/01 12:19:47;;;;;;;3.15;2.67;;;11.10;99.90;;;;;;5035569;28;20037;-77
2021/12/01 12:22:18;;;;;;;7.22;4.47;;;11.20;99.90;;;;;;5026106;28;20051;-76
2021/12/01 12:24:52;;;;;;;4.35;3.42;;;11.20;99.90;;;;;;5022129;28;20064;-77
2021/12/01 12:27:47;;;;;;;3.75;2.75;;;11.30;99.90;;;;;;5014945;28;20049;-76
2021/12/01 12:30:14;;;;;;;2.13;1.30;;;11.20;99.90;;;;;;5031018;28;20042;-77
2021/12/01 12:32:42;;;;;;;1.23;1.08;;;11.10;99.90;;;;;;5034418;28;20128;-76
2021/12/01 12:35:14;;;;;;;24.65;19.05;;;11.00;99.90;;;;;;5034202;28;20049;-77
2021/12/01 12:37:41;;;;;;;20.63;14.65;;;10.90;99.90;;;;;;5034928;28;20069;-76
2021/12/01 12:40:30;;;;;;;7.07;4.90;;;10.70;99.90;;;;;;5034051;28;20037;-76
2021/12/01 12:43:29;;;;;;;5.80;4.60;;;10.50;99.90;;;;;;5034028;28;20045;-77
2021/12/01 12:46:08;;;;;;;2.17;1.60;;;10.30;99.90;;;;;;5022331;28;20087;-77
2021/12/01 12:48:40;;;;;;;34.15;24.17;;;10.40;99.90;;;;;;5015181;28;20042;-77
2021/12/01 12:51:16;;;;;;;71.35;52.33;;;10.60;99.90;;;;;;5033218;28;20049;-75
2021/12/01 12:54:04;;;;;;;3.72;3.08;;;10.80;99.90;;;;;;5021601;28;20060;-76
2021/12/01 12:56:37;;;;;;;2.40;1.80;;;10.90;99.90;;;;;;5017789;28;20045;-77
2021/12/01 12:59:26;;;;;;;8.10;7.07;;;11.00;99.90;;;;;;5013676;28;20045;-75
2021/12/01 13:01:55;;;;;;;9.00;8.07;;;11.10;99.90;;;;;;5023386;28;20512;-75
2021/12/01 13:04:49;;;;;;;13.82;10.52;;;11.00;99.90;;;;;;5029404;28;20496;-76
2021/12/01 13:07:41;;;;;;;16.05;10.57;;;10.90;99.90;;;;;;5026653;28;20084;-76
2021/12/01 13:10:39;;;;;;;9.70;8.68;;;10.70;99.90;;;;;;5006506;28;20077;-76